Tampa, Florida
Traffic Map
Current Weather Conditions
Tampa, Florida
Overcast
Overcast
76°
Feels Like: 76°
Wind Chill: 76° Ceiling: 1400
Heat Index: 76° Visibility: 8mi
Dew Point: 73° Wind: 16mph
Humidity: 91% Direction: 180° (S)
Pressure: 29.91in Gusts: 0mph
Raw Report DataKTPA 061353Z 18014KT 8SM BKN014 OVC030 24/23 A2991 RMK AO2 SLP127 T02440228
Traffic Incident Summary
Active as of:
Severity:
Category:
InformationThere was an issue retrieving the traffic information for this location. Please try a different location or try again shortly.
Advertisements
Track Severe Weather on mobile